sensor_id;sensor_type;location;lat;lon;timestamp;P1;durP1;ratioP1;P2;durP2;ratioP2
46463;SDS011;32161;48.148;-1.554;2023-01-04T00:01:11;14.85;;;2.20;;
46463;SDS011;32161;48.148;-1.554;2023-01-04T00:03:40;17.80;;;2.13;;
46463;SDS011;32161;48.148;-1.554;2023-01-04T00:06:09;19.52;;;2.30;;
46463;SDS011;32161;48.148;-1.554;2023-01-04T00:08:38;9.82;;;2.20;;
46463;SDS011;32161;48.148;-1.554;2023-01-04T00:11:06;11.05;;;2.10;;
46463;SDS011;32161;48.148;-1.554;2023-01-04T00:16:07;10.13;;;1.88;;
46463;SDS011;32161;48.148;-1.554;2023-01-04T00:18:37;11.27;;;2.20;;
46463;SDS011;32161;48.148;-1.554;2023-01-04T00:21:06;8.10;;;1.77;;
46463;SDS011;32161;48.148;-1.554;2023-01-04T00:23:36;14.00;;;2.60;;
46463;SDS011;32161;48.148;-1.554;2023-01-04T00:26:07;9.10;;;2.35;;
46463;SDS011;32161;48.148;-1.554;2023-01-04T00:28:36;7.00;;;1.50;;
46463;SDS011;32161;48.148;-1.554;2023-01-04T00:31:10;13.88;;;1.70;;
46463;SDS011;32161;48.148;-1.554;2023-01-04T00:33:40;18.80;;;1.85;;
46463;SDS011;32161;48.148;-1.554;2023-01-04T00:36:09;8.35;;;1.83;;
46463;SDS011;32161;48.148;-1.554;2023-01-04T00:38:39;15.33;;;3.03;;
46463;SDS011;32161;48.148;-1.554;2023-01-04T00:41:08;12.35;;;2.25;;
46463;SDS011;32161;48.148;-1.554;2023-01-04T00:43:37;10.93;;;2.20;;
46463;SDS011;32161;48.148;-1.554;2023-01-04T00:46:06;12.30;;;2.00;;
46463;SDS011;32161;48.148;-1.554;2023-01-04T00:48:35;11.15;;;2.17;;
46463;SDS011;32161;48.148;-1.554;2023-01-04T00:51:04;8.88;;;2.15;;
46463;SDS011;32161;48.148;-1.554;2023-01-04T00:53:31;14.35;;;1.98;;
46463;SDS011;32161;48.148;-1.554;2023-01-04T00:55:59;10.75;;;1.98;;
46463;SDS011;32161;48.148;-1.554;2023-01-04T00:58:27;15.43;;;2.13;;
46463;SDS011;32161;48.148;-1.554;2023-01-04T01:00:54;16.63;;;2.45;;
46463;SDS011;32161;48.148;-1.554;2023-01-04T01:03:23;12.90;;;2.97;;
46463;SDS011;32161;48.148;-1.554;2023-01-04T01:05:51;13.23;;;2.47;;
46463;SDS011;32161;48.148;-1.554;2023-01-04T01:08:18;11.18;;;2.20;;
46463;SDS011;32161;48.148;-1.554;2023-01-04T01:10:52;17.00;;;2.83;;
46463;SDS011;32161;48.148;-1.554;2023-01-04T01:13:21;10.02;;;2.45;;
46463;SDS011;32161;48.148;-1.554;2023-01-04T01:15:49;17.92;;;3.03;;
46463;SDS011;32161;48.148;-1.554;2023-01-04T01:18:16;10.25;;;1.85;;
46463;SDS011;32161;48.148;-1.554;2023-01-04T01:20:45;7.80;;;1.80;;
46463;SDS011;32161;48.148;-1.554;2023-01-04T01:23:13;9.98;;;2.22;;
46463;SDS011;32161;48.148;-1.554;2023-01-04T01:25:41;9.20;;;1.90;;
46463;SDS011;32161;48.148;-1.554;2023-01-04T01:28:09;11.43;;;2.17;;
46463;SDS011;32161;48.148;-1.554;2023-01-04T01:30:38;12.63;;;1.70;;
46463;SDS011;32161;48.148;-1.554;2023-01-04T01:33:06;12.00;;;3.05;;
46463;SDS011;32161;48.148;-1.554;2023-01-04T01:35:34;7.05;;;1.75;;
46463;SDS011;32161;48.148;-1.554;2023-01-04T01:38:04;12.85;;;2.50;;
46463;SDS011;32161;48.148;-1.554;2023-01-04T01:40:32;9.57;;;2.17;;
46463;SDS011;32161;48.148;-1.554;2023-01-04T01:42:59;10.40;;;1.67;;
46463;SDS011;32161;48.148;-1.554;2023-01-04T01:45:28;8.00;;;1.52;;
46463;SDS011;32161;48.148;-1.554;2023-01-04T01:53:09;7.45;;;1.55;;
46463;SDS011;32161;48.148;-1.554;2023-01-04T01:55:38;7.15;;;1.52;;
46463;SDS011;32161;48.148;-1.554;2023-01-04T01:58:09;14.30;;;1.80;;
46463;SDS011;32161;48.148;-1.554;2023-01-04T02:00:45;10.02;;;1.90;;
46463;SDS011;32161;48.148;-1.554;2023-01-04T02:03:13;11.13;;;2.20;;
46463;SDS011;32161;48.148;-1.554;2023-01-04T02:05:44;9.55;;;1.83;;
46463;SDS011;32161;48.148;-1.554;2023-01-04T02:08:19;12.07;;;1.52;;
46463;SDS011;32161;48.148;-1.554;2023-01-04T02:10:49;10.70;;;1.63;;
46463;SDS011;32161;48.148;-1.554;2023-01-04T02:13:18;7.00;;;1.58;;
46463;SDS011;32161;48.148;-1.554;2023-01-04T02:16:12;8.52;;;1.67;;
46463;SDS011;32161;48.148;-1.554;2023-01-04T02:18:52;7.10;;;1.80;;
46463;SDS011;32161;48.148;-1.554;2023-01-04T02:21:33;10.48;;;1.80;;
46463;SDS011;32161;48.148;-1.554;2023-01-04T02:24:32;12.70;;;2.13;;
46463;SDS011;32161;48.148;-1.554;2023-01-04T02:30:25;9.52;;;1.90;;
46463;SDS011;32161;48.148;-1.554;2023-01-04T02:33:45;15.13;;;2.65;;
46463;SDS011;32161;48.148;-1.554;2023-01-04T02:36:22;12.05;;;2.20;;
46463;SDS011;32161;48.148;-1.554;2023-01-04T02:39:01;8.68;;;2.25;;
46463;SDS011;32161;48.148;-1.554;2023-01-04T02:41:40;10.55;;;2.20;;
46463;SDS011;32161;48.148;-1.554;2023-01-04T02:44:13;15.88;;;3.33;;
46463;SDS011;32161;48.148;-1.554;2023-01-04T02:47:01;18.88;;;3.30;;
46463;SDS011;32161;48.148;-1.554;2023-01-04T02:49:35;14.05;;;2.45;;
46463;SDS011;32161;48.148;-1.554;2023-01-04T02:52:20;13.25;;;2.78;;
46463;SDS011;32161;48.148;-1.554;2023-01-04T02:54:49;11.18;;;2.28;;
46463;SDS011;32161;48.148;-1.554;2023-01-04T02:57:23;16.80;;;3.35;;
46463;SDS011;32161;48.148;-1.554;2023-01-04T03:00:20;18.45;;;3.25;;
46463;SDS011;32161;48.148;-1.554;2023-01-04T03:03:21;15.02;;;2.72;;
46463;SDS011;32161;48.148;-1.554;2023-01-04T03:06:19;17.13;;;2.50;;
46463;SDS011;32161;48.148;-1.554;2023-01-04T03:08:55;16.58;;;2.53;;
46463;SDS011;32161;48.148;-1.554;2023-01-04T03:11:30;12.15;;;3.83;;
46463;SDS011;32161;48.148;-1.554;2023-01-04T03:14:23;17.60;;;3.15;;
46463;SDS011;32161;48.148;-1.554;2023-01-04T03:16:56;13.02;;;2.53;;
46463;SDS011;32161;48.148;-1.554;2023-01-04T03:19:24;18.27;;;3.13;;
46463;SDS011;32161;48.148;-1.554;2023-01-04T03:22:07;15.68;;;2.72;;
46463;SDS011;32161;48.148;-1.554;2023-01-04T03:24:54;14.25;;;2.35;;
46463;SDS011;32161;48.148;-1.554;2023-01-04T03:27:41;15.57;;;3.72;;
46463;SDS011;32161;48.148;-1.554;2023-01-04T03:30:30;16.65;;;2.92;;
46463;SDS011;32161;48.148;-1.554;2023-01-04T03:33:19;19.40;;;3.28;;
46463;SDS011;32161;48.148;-1.554;2023-01-04T03:36:07;22.40;;;2.75;;
46463;SDS011;32161;48.148;-1.554;2023-01-04T03:38:48;18.85;;;3.25;;
46463;SDS011;32161;48.148;-1.554;2023-01-04T03:41:42;22.27;;;3.42;;
46463;SDS011;32161;48.148;-1.554;2023-01-04T03:44:31;15.95;;;2.95;;
46463;SDS011;32161;48.148;-1.554;2023-01-04T03:47:25;17.55;;;3.38;;
46463;SDS011;32161;48.148;-1.554;2023-01-04T03:50:18;17.98;;;2.88;;
46463;SDS011;32161;48.148;-1.554;2023-01-04T03:52:51;18.48;;;4.05;;
46463;SDS011;32161;48.148;-1.554;2023-01-04T03:55:22;22.80;;;2.97;;
46463;SDS011;32161;48.148;-1.554;2023-01-04T03:57:53;29.98;;;3.88;;
46463;SDS011;32161;48.148;-1.554;2023-01-04T04:00:22;18.42;;;3.88;;
46463;SDS011;32161;48.148;-1.554;2023-01-04T04:02:50;24.50;;;5.70;;
46463;SDS011;32161;48.148;-1.554;2023-01-04T04:05:18;16.30;;;3.13;;
46463;SDS011;32161;48.148;-1.554;2023-01-04T04:08:07;17.40;;;4.00;;
46463;SDS011;32161;48.148;-1.554;2023-01-04T04:10:54;18.83;;;3.60;;
46463;SDS011;32161;48.148;-1.554;2023-01-04T04:13:46;17.85;;;3.80;;
46463;SDS011;32161;48.148;-1.554;2023-01-04T04:16:15;25.00;;;4.40;;
46463;SDS011;32161;48.148;-1.554;2023-01-04T04:18:43;21.70;;;3.08;;
46463;SDS011;32161;48.148;-1.554;2023-01-04T04:21:12;18.42;;;4.07;;
46463;SDS011;32161;48.148;-1.554;2023-01-04T04:23:40;21.80;;;4.15;;
46463;SDS011;32161;48.148;-1.554;2023-01-04T04:26:09;23.40;;;3.50;;
46463;SDS011;32161;48.148;-1.554;2023-01-04T04:28:37;23.30;;;3.35;;
46463;SDS011;32161;48.148;-1.554;2023-01-04T04:31:04;29.15;;;5.25;;
46463;SDS011;32161;48.148;-1.554;2023-01-04T04:33:32;24.13;;;3.63;;
46463;SDS011;32161;48.148;-1.554;2023-01-04T04:36:00;23.55;;;3.58;;
46463;SDS011;32161;48.148;-1.554;2023-01-04T04:38:27;22.92;;;3.90;;
46463;SDS011;32161;48.148;-1.554;2023-01-04T04:40:55;28.35;;;5.03;;
46463;SDS011;32161;48.148;-1.554;2023-01-04T04:43:41;28.35;;;4.82;;
46463;SDS011;32161;48.148;-1.554;2023-01-04T04:46:08;18.75;;;4.25;;
46463;SDS011;32161;48.148;-1.554;2023-01-04T04:48:37;28.55;;;5.03;;
46463;SDS011;32161;48.148;-1.554;2023-01-04T04:51:04;25.85;;;4.40;;
46463;SDS011;32161;48.148;-1.554;2023-01-04T04:53:32;24.67;;;3.45;;
46463;SDS011;32161;48.148;-1.554;2023-01-04T04:55:59;18.58;;;3.75;;
46463;SDS011;32161;48.148;-1.554;2023-01-04T04:58:27;21.58;;;3.55;;
46463;SDS011;32161;48.148;-1.554;2023-01-04T05:00:56;20.88;;;4.05;;
46463;SDS011;32161;48.148;-1.554;2023-01-04T05:03:23;21.02;;;3.30;;
46463;SDS011;32161;48.148;-1.554;2023-01-04T05:05:51;26.85;;;4.63;;
46463;SDS011;32161;48.148;-1.554;2023-01-04T05:08:18;21.73;;;4.22;;
46463;SDS011;32161;48.148;-1.554;2023-01-04T05:10:46;23.40;;;4.43;;
46463;SDS011;32161;48.148;-1.554;2023-01-04T05:13:14;23.63;;;3.85;;
46463;SDS011;32161;48.148;-1.554;2023-01-04T05:15:41;27.80;;;3.67;;
46463;SDS011;32161;48.148;-1.554;2023-01-04T05:18:13;18.73;;;3.95;;
46463;SDS011;32161;48.148;-1.554;2023-01-04T05:20:42;24.33;;;3.33;;
46463;SDS011;32161;48.148;-1.554;2023-01-04T05:23:11;21.00;;;4.22;;
46463;SDS011;32161;48.148;-1.554;2023-01-04T05:25:40;20.90;;;3.08;;
46463;SDS011;32161;48.148;-1.554;2023-01-04T05:28:08;21.13;;;3.63;;
46463;SDS011;32161;48.148;-1.554;2023-01-04T05:30:36;20.33;;;3.03;;
46463;SDS011;32161;48.148;-1.554;2023-01-04T05:33:16;19.40;;;3.20;;
46463;SDS011;32161;48.148;-1.554;2023-01-04T05:35:45;23.00;;;3.47;;
46463;SDS011;32161;48.148;-1.554;2023-01-04T05:38:14;19.20;;;2.85;;
46463;SDS011;32161;48.148;-1.554;2023-01-04T05:40:42;19.75;;;3.38;;
46463;SDS011;32161;48.148;-1.554;2023-01-04T05:43:10;18.55;;;3.17;;
46463;SDS011;32161;48.148;-1.554;2023-01-04T05:45:38;22.40;;;3.85;;
46463;SDS011;32161;48.148;-1.554;2023-01-04T05:48:06;15.88;;;2.60;;
46463;SDS011;32161;48.148;-1.554;2023-01-04T05:50:35;16.23;;;3.00;;
46463;SDS011;32161;48.148;-1.554;2023-01-04T05:53:02;18.35;;;2.85;;
46463;SDS011;32161;48.148;-1.554;2023-01-04T05:55:30;17.85;;;2.85;;
46463;SDS011;32161;48.148;-1.554;2023-01-04T05:57:58;21.40;;;2.70;;
46463;SDS011;32161;48.148;-1.554;2023-01-04T06:00:26;20.38;;;2.90;;
46463;SDS011;32161;48.148;-1.554;2023-01-04T06:02:54;23.70;;;3.22;;
46463;SDS011;32161;48.148;-1.554;2023-01-04T06:05:22;14.43;;;2.92;;
46463;SDS011;32161;48.148;-1.554;2023-01-04T06:07:51;24.00;;;3.05;;
46463;SDS011;32161;48.148;-1.554;2023-01-04T06:10:20;18.52;;;2.55;;
46463;SDS011;32161;48.148;-1.554;2023-01-04T06:12:47;17.33;;;2.83;;
46463;SDS011;32161;48.148;-1.554;2023-01-04T06:15:15;15.15;;;2.75;;
46463;SDS011;32161;48.148;-1.554;2023-01-04T06:17:43;17.58;;;3.05;;
46463;SDS011;32161;48.148;-1.554;2023-01-04T06:20:10;8.98;;;2.08;;
46463;SDS011;32161;48.148;-1.554;2023-01-04T06:22:38;12.38;;;2.17;;
46463;SDS011;32161;48.148;-1.554;2023-01-04T06:25:08;8.52;;;1.80;;
46463;SDS011;32161;48.148;-1.554;2023-01-04T06:27:36;12.02;;;1.95;;
46463;SDS011;32161;48.148;-1.554;2023-01-04T06:30:04;11.75;;;2.22;;
46463;SDS011;32161;48.148;-1.554;2023-01-04T06:32:33;13.48;;;2.38;;
46463;SDS011;32161;48.148;-1.554;2023-01-04T06:35:01;12.20;;;2.03;;
46463;SDS011;32161;48.148;-1.554;2023-01-04T06:37:29;16.17;;;2.40;;
46463;SDS011;32161;48.148;-1.554;2023-01-04T06:39:57;10.65;;;1.95;;
46463;SDS011;32161;48.148;-1.554;2023-01-04T06:42:25;12.80;;;1.90;;
46463;SDS011;32161;48.148;-1.554;2023-01-04T06:45:11;15.43;;;2.45;;
46463;SDS011;32161;48.148;-1.554;2023-01-04T06:47:40;9.63;;;2.08;;
46463;SDS011;32161;48.148;-1.554;2023-01-04T06:50:08;9.80;;;2.00;;
46463;SDS011;32161;48.148;-1.554;2023-01-04T06:52:36;15.00;;;1.77;;
46463;SDS011;32161;48.148;-1.554;2023-01-04T06:55:04;18.05;;;3.28;;
46463;SDS011;32161;48.148;-1.554;2023-01-04T06:57:34;17.35;;;2.72;;
46463;SDS011;32161;48.148;-1.554;2023-01-04T07:00:02;15.48;;;3.40;;
46463;SDS011;32161;48.148;-1.554;2023-01-04T07:02:33;10.43;;;2.40;;
46463;SDS011;32161;48.148;-1.554;2023-01-04T07:05:01;16.23;;;2.42;;
46463;SDS011;32161;48.148;-1.554;2023-01-04T07:07:28;13.68;;;2.33;;
46463;SDS011;32161;48.148;-1.554;2023-01-04T07:09:57;19.02;;;3.67;;
46463;SDS011;32161;48.148;-1.554;2023-01-04T07:12:25;15.43;;;2.55;;
46463;SDS011;32161;48.148;-1.554;2023-01-04T07:14:54;17.00;;;2.13;;
46463;SDS011;32161;48.148;-1.554;2023-01-04T07:17:21;14.50;;;2.28;;
46463;SDS011;32161;48.148;-1.554;2023-01-04T07:19:49;15.70;;;2.10;;
46463;SDS011;32161;48.148;-1.554;2023-01-04T07:22:16;12.73;;;2.63;;
46463;SDS011;32161;48.148;-1.554;2023-01-04T07:24:45;11.95;;;2.53;;
46463;SDS011;32161;48.148;-1.554;2023-01-04T07:27:13;16.88;;;2.78;;
46463;SDS011;32161;48.148;-1.554;2023-01-04T07:29:40;14.65;;;2.55;;
46463;SDS011;32161;48.148;-1.554;2023-01-04T07:32:10;22.30;;;2.90;;
46463;SDS011;32161;48.148;-1.554;2023-01-04T07:34:38;19.88;;;3.08;;
46463;SDS011;32161;48.148;-1.554;2023-01-04T07:37:06;13.90;;;2.70;;
46463;SDS011;32161;48.148;-1.554;2023-01-04T07:39:34;14.88;;;2.40;;
46463;SDS011;32161;48.148;-1.554;2023-01-04T07:42:02;15.00;;;2.97;;
46463;SDS011;32161;48.148;-1.554;2023-01-04T07:44:29;16.48;;;2.75;;
46463;SDS011;32161;48.148;-1.554;2023-01-04T07:46:57;14.75;;;2.50;;
46463;SDS011;32161;48.148;-1.554;2023-01-04T07:49:26;9.15;;;1.83;;
46463;SDS011;32161;48.148;-1.554;2023-01-04T07:51:53;16.23;;;2.72;;
46463;SDS011;32161;48.148;-1.554;2023-01-04T07:54:21;16.05;;;2.65;;
46463;SDS011;32161;48.148;-1.554;2023-01-04T07:56:49;18.65;;;2.58;;
46463;SDS011;32161;48.148;-1.554;2023-01-04T07:59:17;11.45;;;1.80;;
46463;SDS011;32161;48.148;-1.554;2023-01-04T08:01:46;9.70;;;2.15;;
46463;SDS011;32161;48.148;-1.554;2023-01-04T08:04:15;15.90;;;1.95;;
46463;SDS011;32161;48.148;-1.554;2023-01-04T08:06:48;7.95;;;1.98;;
46463;SDS011;32161;48.148;-1.554;2023-01-04T08:09:16;14.70;;;2.22;;
46463;SDS011;32161;48.148;-1.554;2023-01-04T08:11:44;14.82;;;2.40;;
46463;SDS011;32161;48.148;-1.554;2023-01-04T08:14:12;11.82;;;1.75;;
46463;SDS011;32161;48.148;-1.554;2023-01-04T08:16:40;10.23;;;2.78;;
46463;SDS011;32161;48.148;-1.554;2023-01-04T08:19:11;12.32;;;2.40;;
46463;SDS011;32161;48.148;-1.554;2023-01-04T08:21:41;10.25;;;1.92;;
46463;SDS011;32161;48.148;-1.554;2023-01-04T08:24:11;12.18;;;2.08;;
46463;SDS011;32161;48.148;-1.554;2023-01-04T08:29:08;11.85;;;1.65;;
46463;SDS011;32161;48.148;-1.554;2023-01-04T08:31:36;5.47;;;1.50;;
46463;SDS011;32161;48.148;-1.554;2023-01-04T08:34:05;9.88;;;1.27;;
46463;SDS011;32161;48.148;-1.554;2023-01-04T08:36:35;6.60;;;1.10;;
46463;SDS011;32161;48.148;-1.554;2023-01-04T08:39:13;5.97;;;1.52;;
46463;SDS011;32161;48.148;-1.554;2023-01-04T08:41:40;7.72;;;1.17;;
46463;SDS011;32161;48.148;-1.554;2023-01-04T08:44:18;10.07;;;1.42;;
46463;SDS011;32161;48.148;-1.554;2023-01-04T08:46:47;12.02;;;1.73;;
46463;SDS011;32161;48.148;-1.554;2023-01-04T08:49:15;5.82;;;1.15;;
46463;SDS011;32161;48.148;-1.554;2023-01-04T08:51:44;4.32;;;1.08;;
46463;SDS011;32161;48.148;-1.554;2023-01-04T08:54:13;4.57;;;1.35;;
46463;SDS011;32161;48.148;-1.554;2023-01-04T08:56:41;7.63;;;1.92;;
46463;SDS011;32161;48.148;-1.554;2023-01-04T08:59:10;6.75;;;1.17;;
46463;SDS011;32161;48.148;-1.554;2023-01-04T09:01:38;7.18;;;1.15;;
46463;SDS011;32161;48.148;-1.554;2023-01-04T09:04:07;10.48;;;1.50;;
46463;SDS011;32161;48.148;-1.554;2023-01-04T09:06:35;1.77;;;1.10;;
46463;SDS011;32161;48.148;-1.554;2023-01-04T09:09:03;6.10;;;1.10;;
46463;SDS011;32161;48.148;-1.554;2023-01-04T09:11:32;4.25;;;0.95;;
46463;SDS011;32161;48.148;-1.554;2023-01-04T09:14:00;6.20;;;1.20;;
46463;SDS011;32161;48.148;-1.554;2023-01-04T09:16:28;4.07;;;0.90;;
46463;SDS011;32161;48.148;-1.554;2023-01-04T09:18:55;3.97;;;0.63;;
46463;SDS011;32161;48.148;-1.554;2023-01-04T09:21:23;3.70;;;0.90;;
46463;SDS011;32161;48.148;-1.554;2023-01-04T09:23:50;4.50;;;0.82;;
46463;SDS011;32161;48.148;-1.554;2023-01-04T09:26:19;2.88;;;0.88;;
46463;SDS011;32161;48.148;-1.554;2023-01-04T09:28:49;3.05;;;1.00;;
46463;SDS011;32161;48.148;-1.554;2023-01-04T09:31:19;6.00;;;1.25;;
46463;SDS011;32161;48.148;-1.554;2023-01-04T09:33:49;5.40;;;0.90;;
46463;SDS011;32161;48.148;-1.554;2023-01-04T09:36:17;3.95;;;0.63;;
46463;SDS011;32161;48.148;-1.554;2023-01-04T09:38:45;2.85;;;0.73;;
46463;SDS011;32161;48.148;-1.554;2023-01-04T09:41:19;4.35;;;1.00;;
46463;SDS011;32161;48.148;-1.554;2023-01-04T09:43:52;3.15;;;0.70;;
46463;SDS011;32161;48.148;-1.554;2023-01-04T09:46:23;1.80;;;0.47;;
46463;SDS011;32161;48.148;-1.554;2023-01-04T09:49:02;1.90;;;0.77;;
46463;SDS011;32161;48.148;-1.554;2023-01-04T09:51:42;2.92;;;0.80;;
46463;SDS011;32161;48.148;-1.554;2023-01-04T09:54:21;2.08;;;0.60;;
46463;SDS011;32161;48.148;-1.554;2023-01-04T09:56:55;1.42;;;0.68;;
46463;SDS011;32161;48.148;-1.554;2023-01-04T09:59:27;4.32;;;0.90;;
46463;SDS011;32161;48.148;-1.554;2023-01-04T10:01:58;1.17;;;0.60;;
46463;SDS011;32161;48.148;-1.554;2023-01-04T10:04:38;4.40;;;0.80;;
46463;SDS011;32161;48.148;-1.554;2023-01-04T10:07:15;3.13;;;0.70;;
46463;SDS011;32161;48.148;-1.554;2023-01-04T10:09:48;2.67;;;0.75;;
46463;SDS011;32161;48.148;-1.554;2023-01-04T10:12:21;2.35;;;1.10;;
46463;SDS011;32161;48.148;-1.554;2023-01-04T10:15:04;2.55;;;0.80;;
46463;SDS011;32161;48.148;-1.554;2023-01-04T10:18:02;2.13;;;1.02;;
46463;SDS011;32161;48.148;-1.554;2023-01-04T10:20:50;5.18;;;0.60;;
46463;SDS011;32161;48.148;-1.554;2023-01-04T10:23:48;6.18;;;1.33;;
46463;SDS011;32161;48.148;-1.554;2023-01-04T10:26:41;4.75;;;1.08;;
46463;SDS011;32161;48.148;-1.554;2023-01-04T10:29:21;3.65;;;1.17;;
46463;SDS011;32161;48.148;-1.554;2023-01-04T10:32:17;3.97;;;1.30;;
46463;SDS011;32161;48.148;-1.554;2023-01-04T10:34:52;6.82;;;1.00;;
46463;SDS011;32161;48.148;-1.554;2023-01-04T10:37:21;6.55;;;1.40;;
46463;SDS011;32161;48.148;-1.554;2023-01-04T10:39:53;5.93;;;1.30;;
46463;SDS011;32161;48.148;-1.554;2023-01-04T10:42:24;8.82;;;0.95;;
46463;SDS011;32161;48.148;-1.554;2023-01-04T10:45:04;3.38;;;0.98;;
46463;SDS011;32161;48.148;-1.554;2023-01-04T10:47:43;3.50;;;1.33;;
46463;SDS011;32161;48.148;-1.554;2023-01-04T10:50:24;6.30;;;1.27;;
46463;SDS011;32161;48.148;-1.554;2023-01-04T10:52:58;5.03;;;1.50;;
46463;SDS011;32161;48.148;-1.554;2023-01-04T10:55:31;5.97;;;1.02;;
46463;SDS011;32161;48.148;-1.554;2023-01-04T10:58:09;5.80;;;1.45;;
46463;SDS011;32161;48.148;-1.554;2023-01-04T11:00:43;6.28;;;1.00;;
46463;SDS011;32161;48.148;-1.554;2023-01-04T11:03:18;4.65;;;1.30;;
46463;SDS011;32161;48.148;-1.554;2023-01-04T11:05:53;8.75;;;1.13;;
46463;SDS011;32161;48.148;-1.554;2023-01-04T11:08:28;12.30;;;2.80;;
46463;SDS011;32161;48.148;-1.554;2023-01-04T11:11:03;7.43;;;1.23;;
46463;SDS011;32161;48.148;-1.554;2023-01-04T11:13:36;4.30;;;1.25;;
46463;SDS011;32161;48.148;-1.554;2023-01-04T11:16:04;3.92;;;1.10;;
46463;SDS011;32161;48.148;-1.554;2023-01-04T11:18:35;8.82;;;1.40;;
46463;SDS011;32161;48.148;-1.554;2023-01-04T11:21:04;4.80;;;1.02;;
46463;SDS011;32161;48.148;-1.554;2023-01-04T11:23:38;6.75;;;1.15;;
46463;SDS011;32161;48.148;-1.554;2023-01-04T11:26:08;5.82;;;1.00;;
46463;SDS011;32161;48.148;-1.554;2023-01-04T11:28:41;5.00;;;1.08;;
46463;SDS011;32161;48.148;-1.554;2023-01-04T11:31:16;3.25;;;1.25;;
46463;SDS011;32161;48.148;-1.554;2023-01-04T11:33:52;5.38;;;1.30;;
46463;SDS011;32161;48.148;-1.554;2023-01-04T11:39:09;4.72;;;0.90;;
46463;SDS011;32161;48.148;-1.554;2023-01-04T11:41:53;4.18;;;1.00;;
46463;SDS011;32161;48.148;-1.554;2023-01-04T11:44:21;4.75;;;0.98;;
46463;SDS011;32161;48.148;-1.554;2023-01-04T11:47:03;3.83;;;0.90;;
46463;SDS011;32161;48.148;-1.554;2023-01-04T11:49:35;2.33;;;1.00;;
46463;SDS011;32161;48.148;-1.554;2023-01-04T11:52:03;2.67;;;1.10;;
46463;SDS011;32161;48.148;-1.554;2023-01-04T11:54:32;3.42;;;1.00;;
46463;SDS011;32161;48.148;-1.554;2023-01-04T11:57:01;3.58;;;0.88;;
46463;SDS011;32161;48.148;-1.554;2023-01-04T11:59:32;5.47;;;0.88;;
46463;SDS011;32161;48.148;-1.554;2023-01-04T12:02:14;9.10;;;1.00;;
46463;SDS011;32161;48.148;-1.554;2023-01-04T12:04:48;4.40;;;0.90;;
46463;SDS011;32161;48.148;-1.554;2023-01-04T12:07:24;4.85;;;0.82;;
46463;SDS011;32161;48.148;-1.554;2023-01-04T12:09:56;2.40;;;0.73;;
46463;SDS011;32161;48.148;-1.554;2023-01-04T12:12:27;2.33;;;1.10;;
46463;SDS011;32161;48.148;-1.554;2023-01-04T12:14:58;3.28;;;0.75;;
46463;SDS011;32161;48.148;-1.554;2023-01-04T12:17:34;2.38;;;0.60;;
46463;SDS011;32161;48.148;-1.554;2023-01-04T12:20:16;3.10;;;0.70;;
46463;SDS011;32161;48.148;-1.554;2023-01-04T12:22:46;4.72;;;1.08;;
46463;SDS011;32161;48.148;-1.554;2023-01-04T12:25:20;1.92;;;0.80;;
46463;SDS011;32161;48.148;-1.554;2023-01-04T12:27:57;4.60;;;0.70;;
46463;SDS011;32161;48.148;-1.554;2023-01-04T12:30:32;2.80;;;0.90;;
46463;SDS011;32161;48.148;-1.554;2023-01-04T12:36:06;4.78;;;0.70;;
46463;SDS011;32161;48.148;-1.554;2023-01-04T12:44:56;0.82;;;0.63;;
46463;SDS011;32161;48.148;-1.554;2023-01-04T12:47:44;1.95;;;0.80;;
46463;SDS011;32161;48.148;-1.554;2023-01-04T12:50:30;2.05;;;0.55;;
46463;SDS011;32161;48.148;-1.554;2023-01-04T12:56:19;1.92;;;0.65;;
46463;SDS011;32161;48.148;-1.554;2023-01-04T13:01:35;3.53;;;0.70;;
46463;SDS011;32161;48.148;-1.554;2023-01-04T13:06:59;0.50;;;0.50;;
46463;SDS011;32161;48.148;-1.554;2023-01-04T13:09:42;0.95;;;0.75;;
46463;SDS011;32161;48.148;-1.554;2023-01-04T13:15:31;1.50;;;0.60;;
46463;SDS011;32161;48.148;-1.554;2023-01-04T13:18:26;1.30;;;0.40;;
46463;SDS011;32161;48.148;-1.554;2023-01-04T13:21:01;1.35;;;0.80;;
46463;SDS011;32161;48.148;-1.554;2023-01-04T13:23:36;2.67;;;0.43;;
46463;SDS011;32161;48.148;-1.554;2023-01-04T13:29:07;0.77;;;0.30;;
46463;SDS011;32161;48.148;-1.554;2023-01-04T13:31:43;0.40;;;0.40;;
46463;SDS011;32161;48.148;-1.554;2023-01-04T13:34:17;0.68;;;0.40;;
46463;SDS011;32161;48.148;-1.554;2023-01-04T13:36:54;0.93;;;0.50;;
46463;SDS011;32161;48.148;-1.554;2023-01-04T13:39:29;3.30;;;0.32;;
46463;SDS011;32161;48.148;-1.554;2023-01-04T13:41:58;2.33;;;0.32;;
46463;SDS011;32161;48.148;-1.554;2023-01-04T13:44:42;1.83;;;0.45;;
46463;SDS011;32161;48.148;-1.554;2023-01-04T13:47:41;1.48;;;0.28;;
46463;SDS011;32161;48.148;-1.554;2023-01-04T13:50:16;1.10;;;0.32;;
46463;SDS011;32161;48.148;-1.554;2023-01-04T13:53:00;1.50;;;0.35;;
46463;SDS011;32161;48.148;-1.554;2023-01-04T13:55:29;0.30;;;0.30;;
46463;SDS011;32161;48.148;-1.554;2023-01-04T13:58:01;0.40;;;0.30;;
46463;SDS011;32161;48.148;-1.554;2023-01-04T14:00:31;0.32;;;0.30;;
46463;SDS011;32161;48.148;-1.554;2023-01-04T14:03:06;1.60;;;0.20;;
46463;SDS011;32161;48.148;-1.554;2023-01-04T14:05:47;0.38;;;0.35;;
46463;SDS011;32161;48.148;-1.554;2023-01-04T14:08:19;3.50;;;0.30;;
46463;SDS011;32161;48.148;-1.554;2023-01-04T14:10:55;0.93;;;0.40;;
46463;SDS011;32161;48.148;-1.554;2023-01-04T14:13:24;0.50;;;0.38;;
46463;SDS011;32161;48.148;-1.554;2023-01-04T14:16:05;1.42;;;0.60;;
46463;SDS011;32161;48.148;-1.554;2023-01-04T14:18:39;0.82;;;0.40;;
46463;SDS011;32161;48.148;-1.554;2023-01-04T14:21:13;0.30;;;0.30;;
46463;SDS011;32161;48.148;-1.554;2023-01-04T14:23:42;0.47;;;0.43;;
46463;SDS011;32161;48.148;-1.554;2023-01-04T14:28:57;2.80;;;0.38;;
46463;SDS011;32161;48.148;-1.554;2023-01-04T14:31:45;1.00;;;0.40;;
46463;SDS011;32161;48.148;-1.554;2023-01-04T14:34:12;0.85;;;0.60;;
46463;SDS011;32161;48.148;-1.554;2023-01-04T14:36:40;1.02;;;0.55;;
46463;SDS011;32161;48.148;-1.554;2023-01-04T14:39:20;0.50;;;0.50;;
46463;SDS011;32161;48.148;-1.554;2023-01-04T14:41:56;2.35;;;0.63;;
46463;SDS011;32161;48.148;-1.554;2023-01-04T14:44:28;0.93;;;0.90;;
46463;SDS011;32161;48.148;-1.554;2023-01-04T14:47:00;1.52;;;0.70;;
46463;SDS011;32161;48.148;-1.554;2023-01-04T14:49:30;1.42;;;1.02;;
46463;SDS011;32161;48.148;-1.554;2023-01-04T14:51:58;1.55;;;0.55;;
46463;SDS011;32161;48.148;-1.554;2023-01-04T14:54:27;0.55;;;0.55;;
46463;SDS011;32161;48.148;-1.554;2023-01-04T14:56:59;1.63;;;0.75;;
46463;SDS011;32161;48.148;-1.554;2023-01-04T14:59:28;1.40;;;0.50;;
46463;SDS011;32161;48.148;-1.554;2023-01-04T15:01:56;1.02;;;0.35;;
46463;SDS011;32161;48.148;-1.554;2023-01-04T15:04:24;0.45;;;0.45;;
46463;SDS011;32161;48.148;-1.554;2023-01-04T15:06:52;0.50;;;0.32;;
46463;SDS011;32161;48.148;-1.554;2023-01-04T15:09:22;1.30;;;0.30;;
46463;SDS011;32161;48.148;-1.554;2023-01-04T15:11:49;1.65;;;0.30;;
46463;SDS011;32161;48.148;-1.554;2023-01-04T15:14:17;0.40;;;0.40;;
46463;SDS011;32161;48.148;-1.554;2023-01-04T15:16:46;1.23;;;0.35;;
46463;SDS011;32161;48.148;-1.554;2023-01-04T15:19:14;1.55;;;0.40;;
46463;SDS011;32161;48.148;-1.554;2023-01-04T15:21:42;2.63;;;0.45;;
46463;SDS011;32161;48.148;-1.554;2023-01-04T15:24:09;1.15;;;0.38;;
46463;SDS011;32161;48.148;-1.554;2023-01-04T15:26:37;1.60;;;1.15;;
46463;SDS011;32161;48.148;-1.554;2023-01-04T15:29:05;2.35;;;0.43;;
46463;SDS011;32161;48.148;-1.554;2023-01-04T15:31:33;1.92;;;0.55;;
46463;SDS011;32161;48.148;-1.554;2023-01-04T15:34:04;1.85;;;0.52;;
46463;SDS011;32161;48.148;-1.554;2023-01-04T15:36:31;2.75;;;0.60;;
46463;SDS011;32161;48.148;-1.554;2023-01-04T15:39:02;0.65;;;0.40;;
46463;SDS011;32161;48.148;-1.554;2023-01-04T15:41:30;3.05;;;0.40;;
46463;SDS011;32161;48.148;-1.554;2023-01-04T15:44:16;1.48;;;0.73;;